Time;durP1;ratioP1;P1;durP2;ratioP2;P2;SDS_P1;SDS_P2;PMS_P1;PMS_P2;Temp;Humidity;BMP_temperature;BMP_pressure;BME280_temperature;BME280_humidity;BME280_pressure;Samples;Min_cycle;Max_cycle;Signal;HPM_P1;HPM_P2
2022/12/14 00:01:30;;;;;;;11.25;6.28;;;-1.10;1.00;;;;;;5071249;28;20665;-87
2022/12/14 00:03:56;;;;;;;8.95;6.00;;;-1.10;1.00;;;;;;5061226;28;20215;-86
2022/12/14 00:06:31;;;;;;;9.33;6.30;;;-1.10;1.00;;;;;;5073589;28;20669;-76
2022/12/14 00:08:59;;;;;;;10.88;6.00;;;-1.20;1.00;;;;;;5072711;28;20630;-76
2022/12/14 00:11:48;;;;;;;9.75;6.85;;;-1.20;1.00;;;;;;5073591;28;20228;-76
2022/12/14 00:14:19;;;;;;;8.95;6.10;;;-1.20;1.00;;;;;;5071773;28;20209;-76
2022/12/14 00:16:48;;;;;;;10.70;6.55;;;-1.20;1.00;;;;;;5072789;28;20191;-76
2022/12/14 00:19:31;;;;;;;11.43;6.38;;;-1.10;1.00;;;;;;5072592;28;20179;-76
2022/12/14 00:21:57;;;;;;;8.82;6.20;;;-1.20;1.00;;;;;;5072037;28;20167;-76
2022/12/14 00:24:24;;;;;;;9.47;6.07;;;-1.10;1.00;;;;;;5065540;28;20193;-76
2022/12/14 00:26:54;;;;;;;11.20;7.10;;;-1.10;1.00;;;;;;5055642;28;20550;-76
2022/12/14 00:29:24;;;;;;;11.13;6.50;;;-1.20;1.00;;;;;;5072126;28;20178;-75
2022/12/14 00:32:06;;;;;;;8.52;5.80;;;-1.20;1.00;;;;;;5070582;28;20541;-76
2022/12/14 00:34:36;;;;;;;9.75;6.30;;;-1.20;1.00;;;;;;5071075;28;20681;-76
2022/12/14 00:37:06;;;;;;;8.77;6.20;;;-1.20;1.00;;;;;;5071445;28;20175;-76
2022/12/14 00:39:48;;;;;;;10.32;6.00;;;-1.20;1.00;;;;;;5071185;28;20198;-76
2022/12/14 00:42:36;;;;;;;9.25;6.50;;;-1.20;1.00;;;;;;5070442;28;20719;-76
2022/12/14 00:45:07;;;;;;;8.30;5.97;;;-1.10;1.00;;;;;;5072315;28;20286;-76
2022/12/14 00:47:33;;;;;;;10.30;6.03;;;-1.10;1.00;;;;;;5065836;28;20747;-75
2022/12/14 00:49:59;;;;;;;9.10;6.00;;;-1.10;1.00;;;;;;5064753;28;20179;-75
2022/12/14 00:52:25;;;;;;;10.00;6.13;;;-1.00;1.00;;;;;;5059659;28;20175;-76
2022/12/14 00:55:07;;;;;;;10.50;6.63;;;-1.00;1.00;;;;;;5063782;28;20206;-76
2022/12/14 00:57:37;;;;;;;9.50;5.85;;;-1.00;1.00;;;;;;5066039;28;20260;-77
2022/12/14 01:00:19;;;;;;;9.27;6.20;;;-1.10;1.00;;;;;;5072912;28;20167;-76
2022/12/14 01:02:44;;;;;;;10.27;5.95;;;-1.00;1.00;;;;;;5065481;28;20585;-76
2022/12/14 01:05:19;;;;;;;10.80;5.70;;;-1.00;1.00;;;;;;5062299;28;20186;-76
2022/12/14 01:08:06;;;;;;;9.98;6.85;;;-1.00;1.00;;;;;;5070643;28;20205;-87
2022/12/14 01:11:18;;;;;;;7.45;5.70;;;-1.00;1.00;;;;;;5060050;28;20191;-86
2022/12/14 01:13:49;;;;;;;8.30;5.95;;;-1.00;1.00;;;;;;5071014;28;20199;-87
2022/12/14 01:16:19;;;;;;;9.02;6.03;;;-0.90;1.00;;;;;;5071994;28;20744;-86
2022/12/14 01:18:49;;;;;;;10.60;6.18;;;-0.90;1.00;;;;;;5072886;28;20192;-87
2022/12/14 01:21:21;;;;;;;7.78;5.70;;;-0.90;1.00;;;;;;5072585;28;20733;-86
2022/12/14 01:30:49;;;;;;;8.95;5.78;;;-0.90;1.00;;;;;;5073252;28;20728;-86
2022/12/14 01:33:14;;;;;;;8.27;6.07;;;-0.90;1.00;;;;;;5061080;28;20204;-86
2022/12/14 01:36:08;;;;;;;9.70;5.97;;;-0.90;1.00;;;;;;5071718;28;20201;-86
2022/12/14 01:42:11;;;;;;;7.72;5.55;;;-0.80;1.00;;;;;;5070596;28;20236;-86
2022/12/14 01:48:13;;;;;;;13.00;5.25;;;-0.80;1.00;;;;;;5059211;28;20269;-86
2022/12/14 01:50:55;;;;;;;9.43;5.55;;;-0.70;1.00;;;;;;5061931;28;20194;-86
2022/12/14 01:56:55;;;;;;;9.55;5.63;;;-0.70;1.00;;;;;;5072357;28;20205;-87
2022/12/14 02:00:07;;;;;;;9.48;5.32;;;-0.70;1.00;;;;;;5073320;28;20174;-86
2022/12/14 02:03:11;;;;;;;7.05;5.65;;;-0.70;1.00;;;;;;5070245;28;20181;-86
2022/12/14 02:05:42;;;;;;;8.57;5.47;;;-0.80;1.00;;;;;;5061651;28;20257;-86
2022/12/14 02:08:21;;;;;;;9.23;5.57;;;-0.80;1.00;;;;;;5074001;28;20195;-76
2022/12/14 02:10:48;;;;;;;8.07;5.00;;;-0.80;1.00;;;;;;5064139;28;20370;-76
2022/12/14 02:13:46;;;;;;;6.10;5.10;;;-0.70;1.00;;;;;;5069292;28;20220;-76
2022/12/14 02:16:11;;;;;;;7.00;5.00;;;-0.80;1.00;;;;;;5010433;28;20177;-76
2022/12/14 02:18:49;;;;;;;8.10;5.27;;;-0.70;1.00;;;;;;5012831;28;20236;-76
2022/12/14 02:21:17;;;;;;;6.78;5.10;;;-0.70;1.00;;;;;;5011928;28;20711;-76
2022/12/14 02:24:25;;;;;;;8.20;5.10;;;-0.70;1.00;;;;;;5013119;28;20728;-76
2022/12/14 02:27:17;;;;;;;8.30;5.18;;;-0.70;1.00;;;;;;4962153;28;20202;-76
2022/12/14 02:30:30;;;;;;;6.78;5.38;;;-0.70;1.00;;;;;;4884251;29;20389;-76
2022/12/14 02:33:19;;;;;;;6.65;4.70;;;-0.70;1.00;;;;;;4881307;29;20233;-75
2022/12/14 02:35:54;;;;;;;6.03;4.63;;;-0.70;1.00;;;;;;4885165;29;20197;-76
2022/12/14 02:38:32;;;;;;;9.13;5.07;;;-0.70;1.00;;;;;;4887786;29;20220;-86
2022/12/14 02:44:55;;;;;;;6.80;4.80;;;-0.80;1.00;;;;;;4871936;29;20233;-86
2022/12/14 02:51:06;;;;;;;6.28;4.53;;;-0.80;1.00;;;;;;4860898;29;20281;-86
2022/12/14 02:57:02;;;;;;;6.43;4.75;;;-0.70;1.00;;;;;;4889377;29;20236;-86
2022/12/14 02:59:56;;;;;;;6.13;4.47;;;-0.80;1.00;;;;;;4898143;29;20226;-86
2022/12/14 03:02:40;;;;;;;6.88;4.40;;;-0.70;1.00;;;;;;4912620;28;20541;-86
2022/12/14 03:05:19;;;;;;;7.45;4.90;;;-0.70;1.00;;;;;;4990002;28;20257;-86
2022/12/14 03:07:57;;;;;;;6.80;4.85;;;-0.60;1.00;;;;;;5065846;28;20188;-87
2022/12/14 03:10:59;;;;;;;5.75;4.80;;;-0.60;1.00;;;;;;5070517;28;20179;-86
2022/12/14 03:17:20;;;;;;;7.53;4.80;;;-0.50;1.00;;;;;;5069916;28;20860;-87
2022/12/14 03:20:04;;;;;;;6.68;4.75;;;-0.50;1.00;;;;;;5064856;28;20236;-86
2022/12/14 03:23:08;;;;;;;7.00;4.53;;;-0.50;1.00;;;;;;5074733;28;20572;-87
2022/12/14 03:26:03;;;;;;;6.60;4.85;;;-0.50;1.00;;;;;;5065152;28;20257;-76
2022/12/14 03:28:44;;;;;;;6.90;4.90;;;-0.50;1.00;;;;;;5073569;28;20739;-76
2022/12/14 03:31:52;;;;;;;7.15;4.75;;;-0.50;1.00;;;;;;5066417;28;20180;-76
2022/12/14 03:34:23;;;;;;;9.15;5.53;;;-0.60;1.00;;;;;;5070057;28;20230;-75
2022/12/14 03:36:58;;;;;;;6.70;4.78;;;-0.60;1.00;;;;;;5067863;28;20180;-75
2022/12/14 03:39:32;;;;;;;6.97;4.88;;;-0.60;1.00;;;;;;5073302;28;20257;-76
2022/12/14 03:42:21;;;;;;;9.10;4.72;;;-0.70;1.00;;;;;;5072618;28;20206;-76
2022/12/14 03:45:22;;;;;;;6.65;5.20;;;-0.70;1.00;;;;;;5069795;28;20224;-76
2022/12/14 03:48:12;;;;;;;9.95;4.70;;;-0.70;1.00;;;;;;5058849;28;20258;-76
2022/12/14 03:50:46;;;;;;;5.82;4.45;;;-0.70;1.00;;;;;;5070118;28;20580;-76
2022/12/14 03:53:49;;;;;;;5.80;4.60;;;-0.80;1.00;;;;;;5070727;28;20187;-76
2022/12/14 03:56:51;;;;;;;6.97;5.05;;;-0.80;1.00;;;;;;4994159;28;20217;-86
2022/12/14 03:59:54;;;;;;;7.90;4.70;;;-0.70;1.00;;;;;;4965447;28;20190;-86
2022/12/14 04:02:56;;;;;;;6.85;4.60;;;-0.70;1.00;;;;;;4967255;28;20183;-86
2022/12/14 04:05:42;;;;;;;7.45;4.75;;;-0.70;1.00;;;;;;4953659;29;20185;-86
2022/12/14 04:09:10;;;;;;;5.60;4.40;;;-0.70;1.00;;;;;;4954963;28;20201;-86
2022/12/14 04:21:33;;;;;;;5.72;4.30;;;-0.70;1.00;;;;;;4885683;29;20269;-86
2022/12/14 04:27:31;;;;;;;7.85;4.70;;;-0.80;1.00;;;;;;4858049;29;20216;-86
2022/12/14 04:29:59;;;;;;;6.97;4.60;;;-0.70;1.00;;;;;;4877320;29;20197;-86
2022/12/14 04:32:46;;;;;;;9.27;5.35;;;-0.70;1.00;;;;;;4899387;29;20614;-86
2022/12/14 04:35:16;;;;;;;6.35;4.85;;;-0.60;1.00;;;;;;4950151;28;20216;-85
2022/12/14 04:37:47;;;;;;;7.10;4.38;;;-0.60;1.00;;;;;;4986935;28;20184;-85
2022/12/14 04:40:43;;;;;;;9.75;5.63;;;-0.60;1.00;;;;;;4991780;28;20640;-76
2022/12/14 04:43:18;;;;;;;6.72;4.65;;;-0.60;1.00;;;;;;4989215;28;20326;-75
2022/12/14 04:46:22;;;;;;;5.80;4.72;;;-0.60;1.00;;;;;;5033922;28;20602;-76
2022/12/14 04:48:56;;;;;;;6.93;5.10;;;-0.50;1.00;;;;;;5011135;28;20188;-76
2022/12/14 04:51:35;;;;;;;6.80;5.40;;;-0.50;1.00;;;;;;5009866;28;20276;-76
2022/12/14 04:54:28;;;;;;;7.43;5.22;;;-0.40;1.00;;;;;;5011140;28;20307;-86
2022/12/14 04:57:36;;;;;;;7.93;4.97;;;-0.50;1.00;;;;;;4998686;28;20360;-86
2022/12/14 05:00:08;;;;;;;6.60;4.75;;;-0.40;1.00;;;;;;5010981;28;20224;-86
2022/12/14 05:03:13;;;;;;;10.18;5.20;;;-0.40;1.00;;;;;;5006851;28;20185;-86
2022/12/14 05:06:24;;;;;;;6.50;4.97;;;-0.40;1.00;;;;;;5000166;28;20655;-86
2022/12/14 05:09:12;;;;;;;7.60;5.32;;;-0.30;1.00;;;;;;5024150;28;20723;-86
2022/12/14 05:11:53;;;;;;;8.27;5.07;;;-0.40;1.00;;;;;;5023448;28;20180;-76
2022/12/14 05:14:46;;;;;;;7.47;4.90;;;-0.30;1.00;;;;;;5031031;28;20214;-76
2022/12/14 05:17:14;;;;;;;8.10;5.55;;;-0.30;1.00;;;;;;5030397;28;20300;-76
2022/12/14 05:19:55;;;;;;;10.90;5.50;;;-0.30;1.00;;;;;;5030798;28;20578;-76
2022/12/14 05:22:21;;;;;;;10.20;5.40;;;-0.30;1.00;;;;;;5042126;28;20217;-77
2022/12/14 05:24:46;;;;;;;9.87;5.13;;;-0.30;1.00;;;;;;5053422;28;20172;-86
2022/12/14 05:28:00;;;;;;;9.00;5.50;;;-0.30;1.00;;;;;;5066696;28;20432;-87
2022/12/14 05:30:37;;;;;;;7.65;5.03;;;-0.20;1.00;;;;;;5066702;28;20175;-86
2022/12/14 05:33:16;;;;;;;9.05;5.43;;;-0.20;1.00;;;;;;5056320;28;20695;-86
2022/12/14 05:35:42;;;;;;;10.27;5.70;;;-0.20;1.00;;;;;;5072641;28;20194;-86
2022/12/14 05:38:08;;;;;;;10.00;5.60;;;-0.20;1.00;;;;;;5076256;28;20179;-86
2022/12/14 05:41:06;;;;;;;8.32;5.70;;;-0.10;1.00;;;;;;5063598;28;20221;-87
2022/12/14 05:46:55;;;;;;;8.73;6.03;;;-0.10;1.00;;;;;;5056914;28;20213;-86
2022/12/14 05:49:20;;;;;;;6.50;5.18;;;-0.10;1.00;;;;;;5065501;28;20187;-86
2022/12/14 05:52:01;;;;;;;11.33;6.10;;;-0.10;1.00;;;;;;5076448;28;20179;-86
2022/12/14 05:54:37;;;;;;;9.27;5.82;;;-0.10;1.00;;;;;;5074341;28;20662;-86
2022/12/14 05:57:03;;;;;;;11.73;5.80;;;-0.10;1.00;;;;;;5061559;28;20183;-76
2022/12/14 05:59:29;;;;;;;11.55;6.20;;;-0.10;1.00;;;;;;5061402;28;20639;-76
2022/12/14 06:02:07;;;;;;;11.65;5.90;;;-0.10;1.00;;;;;;5075996;28;20550;-77
2022/12/14 06:04:41;;;;;;;8.60;6.05;;;0.00;1.00;;;;;;5066278;28;20174;-75
2022/12/14 06:07:11;;;;;;;7.43;5.05;;;0.00;1.00;;;;;;5064304;28;20214;-75
2022/12/14 06:09:38;;;;;;;9.65;6.20;;;0.00;1.00;;;;;;5076062;28;20179;-76
2022/12/14 06:12:04;;;;;;;11.53;6.47;;;0.00;1.00;;;;;;5074916;28;20195;-71
2022/12/14 06:14:30;;;;;;;8.13;6.13;;;0.00;1.00;;;;;;5073176;28;20459;-70
2022/12/14 06:16:56;;;;;;;10.60;6.60;;;0.00;1.00;;;;;;5072782;28;20167;-70
2022/12/14 06:19:22;;;;;;;15.30;6.27;;;0.00;1.00;;;;;;5069138;28;20197;-70
2022/12/14 06:21:47;;;;;;;15.30;6.90;;;0.10;1.00;;;;;;5072172;28;21200;-70
2022/12/14 06:24:13;;;;;;;9.83;6.30;;;0.00;1.00;;;;;;5069860;28;20433;-70
2022/12/14 06:26:43;;;;;;;9.40;6.23;;;0.10;1.00;;;;;;5071447;28;20175;-75
2022/12/14 06:29:20;;;;;;;9.38;6.50;;;0.10;1.00;;;;;;5075195;28;20768;-75
2022/12/14 06:31:49;;;;;;;14.15;6.95;;;0.10;1.00;;;;;;5070288;28;20187;-75
2022/12/14 06:34:15;;;;;;;17.58;7.38;;;0.10;1.00;;;;;;5066604;28;20222;-75
2022/12/14 06:36:41;;;;;;;13.60;6.57;;;0.10;1.00;;;;;;5067549;28;20193;-75
2022/12/14 06:39:14;;;;;;;13.80;6.47;;;0.10;1.00;;;;;;5074886;28;20405;-75
2022/12/14 06:41:47;;;;;;;12.73;7.70;;;0.10;1.00;;;;;;5066845;28;20183;-76
2022/12/14 06:44:13;;;;;;;9.70;6.57;;;0.00;1.00;;;;;;5072833;28;20171;-75
2022/12/14 06:46:40;;;;;;;9.63;6.63;;;0.00;1.00;;;;;;5065826;28;20316;-75
2022/12/14 06:49:10;;;;;;;12.35;6.60;;;-0.10;1.00;;;;;;5075189;28;20179;-75
2022/12/14 06:51:40;;;;;;;11.20;7.13;;;-0.10;1.00;;;;;;5065797;28;20224;-75
2022/12/14 06:54:11;;;;;;;9.77;6.55;;;-0.10;1.00;;;;;;5067524;28;20198;-75
2022/12/14 06:56:45;;;;;;;12.10;6.70;;;0.00;1.00;;;;;;5071736;28;20175;-75
2022/12/14 06:59:14;;;;;;;9.63;6.55;;;0.00;1.00;;;;;;5069193;28;20578;-75
2022/12/14 07:01:44;;;;;;;10.60;6.80;;;0.10;1.00;;;;;;5066879;28;20640;-75
2022/12/14 07:04:10;;;;;;;10.55;6.68;;;0.10;1.00;;;;;;5066318;28;20179;-76
2022/12/14 07:06:39;;;;;;;10.35;6.93;;;0.10;1.00;;;;;;5072572;28;20316;-76
2022/12/14 07:09:06;;;;;;;10.90;7.20;;;0.10;1.00;;;;;;5064102;28;20180;-75
2022/12/14 07:11:32;;;;;;;13.25;7.80;;;0.10;1.00;;;;;;5069834;28;20183;-70
2022/12/14 07:14:04;;;;;;;12.98;7.25;;;0.10;1.00;;;;;;5068980;28;20194;-70
2022/12/14 07:16:31;;;;;;;10.85;7.10;;;0.10;1.00;;;;;;5062847;28;20183;-70
2022/12/14 07:18:58;;;;;;;19.23;7.35;;;0.10;1.00;;;;;;5072256;28;20253;-70
2022/12/14 07:21:24;;;;;;;14.57;7.53;;;0.10;1.00;;;;;;5070352;28;20183;-71
2022/12/14 07:23:51;;;;;;;11.55;6.78;;;0.10;1.00;;;;;;5068841;28;20182;-70
2022/12/14 07:26:23;;;;;;;11.18;7.03;;;0.20;1.00;;;;;;5073900;28;20776;-70
2022/12/14 07:28:49;;;;;;;11.52;7.78;;;0.20;1.00;;;;;;5058531;28;20193;-70
2022/12/14 07:31:26;;;;;;;11.73;7.30;;;0.20;1.00;;;;;;5072522;28;20182;-71
2022/12/14 07:33:53;;;;;;;14.85;7.80;;;0.20;1.00;;;;;;5071662;28;20198;-70
2022/12/14 07:36:20;;;;;;;13.13;6.95;;;0.20;1.00;;;;;;5061282;28;20183;-70
2022/12/14 07:38:47;;;;;;;13.25;7.63;;;0.20;1.00;;;;;;5058813;28;20187;-70
2022/12/14 07:41:16;;;;;;;16.17;6.70;;;0.20;1.00;;;;;;5055967;28;20524;-70
2022/12/14 07:43:57;;;;;;;9.20;6.85;;;0.30;1.00;;;;;;5068009;28;20172;-75
2022/12/14 07:46:28;;;;;;;13.48;7.47;;;0.30;1.00;;;;;;5068541;28;20182;-75
2022/12/14 07:48:55;;;;;;;12.52;7.03;;;0.40;1.00;;;;;;5071289;28;20404;-75
2022/12/14 07:51:34;;;;;;;12.00;7.93;;;0.40;1.00;;;;;;5069798;28;20187;-75
2022/12/14 07:54:02;;;;;;;11.43;6.97;;;0.50;1.00;;;;;;5071619;28;20191;-75
2022/12/14 07:56:31;;;;;;;23.58;7.72;;;0.50;1.00;;;;;;5071678;28;20244;-71
2022/12/14 07:59:03;;;;;;;11.98;7.68;;;0.50;1.00;;;;;;5065922;28;20859;-70
2022/12/14 08:01:32;;;;;;;14.02;7.60;;;0.50;1.00;;;;;;5068574;28;20262;-70
2022/12/14 08:04:18;;;;;;;12.82;8.02;;;0.60;1.00;;;;;;5069102;28;20220;-71
2022/12/14 08:06:46;;;;;;;13.63;7.95;;;0.60;1.00;;;;;;5065765;28;20545;-71
2022/12/14 08:09:12;;;;;;;14.27;7.50;;;0.60;1.00;;;;;;5066117;28;20178;-70
2022/12/14 08:11:39;;;;;;;10.80;7.35;;;0.60;1.00;;;;;;5069345;28;20269;-70
2022/12/14 08:14:12;;;;;;;15.93;7.60;;;0.60;1.00;;;;;;5072740;28;20221;-86
2022/12/14 08:16:38;;;;;;;18.10;7.70;;;0.60;1.00;;;;;;5065718;28;20182;-85
2022/12/14 08:19:08;;;;;;;14.80;8.30;;;0.70;1.00;;;;;;5051590;28;20191;-86
2022/12/14 08:21:37;;;;;;;13.93;7.78;;;0.70;1.00;;;;;;5069383;28;20420;-86
2022/12/14 08:27:48;;;;;;;17.00;8.50;;;0.70;1.00;;;;;;5069828;28;20798;-84
2022/12/14 08:30:19;;;;;;;14.55;8.50;;;0.70;1.00;;;;;;5072875;28;20183;-85
2022/12/14 08:32:55;;;;;;;15.65;8.95;;;0.70;1.00;;;;;;5073453;28;20205;-85
2022/12/14 08:35:21;;;;;;;17.30;8.00;;;0.70;1.00;;;;;;5071138;28;20205;-84
2022/12/14 08:37:47;;;;;;;15.17;8.60;;;0.70;1.00;;;;;;5073480;28;20179;-85
2022/12/14 08:40:19;;;;;;;13.70;7.43;;;0.70;1.00;;;;;;5059990;28;20417;-87
2022/12/14 08:42:49;;;;;;;13.43;8.75;;;0.70;1.00;;;;;;5072963;28;20179;-75
2022/12/14 08:45:19;;;;;;;14.60;9.00;;;0.70;1.00;;;;;;5066182;28;20579;-76
2022/12/14 08:47:56;;;;;;;13.55;8.20;;;0.70;1.00;;;;;;5064923;28;20256;-75
2022/12/14 08:50:26;;;;;;;21.02;9.07;;;0.70;1.00;;;;;;5071384;28;20240;-77
2022/12/14 08:52:52;;;;;;;15.57;9.00;;;0.70;1.00;;;;;;5072824;28;20179;-75
2022/12/14 08:55:20;;;;;;;16.73;8.40;;;0.70;1.00;;;;;;5057393;28;20596;-76
2022/12/14 08:58:25;;;;;;;13.88;8.55;;;0.70;1.00;;;;;;5070320;28;20304;-85
2022/12/14 09:01:03;;;;;;;17.27;9.27;;;0.80;1.00;;;;;;5069001;28;20167;-84
2022/12/14 09:03:31;;;;;;;14.10;9.30;;;0.80;1.00;;;;;;5062800;28;20183;-85
2022/12/14 09:06:04;;;;;;;18.52;9.13;;;0.80;1.00;;;;;;5072611;28;20703;-85
2022/12/14 09:12:07;;;;;;;14.57;8.70;;;1.00;1.00;;;;;;5075003;28;20202;-85
2022/12/14 09:14:37;;;;;;;16.42;9.50;;;0.80;1.00;;;;;;5066172;28;20230;-85
2022/12/14 09:17:12;;;;;;;16.73;9.00;;;0.70;1.00;;;;;;5063110;28;20179;-85
2022/12/14 09:20:07;;;;;;;17.73;10.23;;;0.80;1.00;;;;;;5064780;28;20190;-86
2022/12/14 09:22:37;;;;;;;13.77;9.00;;;0.80;1.00;;;;;;5064099;28;20195;-83
2022/12/14 09:25:03;;;;;;;18.73;9.77;;;0.80;1.00;;;;;;5066081;28;21088;-84
2022/12/14 09:27:32;;;;;;;11.07;8.23;;;0.90;1.00;;;;;;5065645;28;20175;-76
2022/12/14 09:30:07;;;;;;;17.35;9.65;;;0.90;1.00;;;;;;5062618;28;20222;-77
2022/12/14 09:32:33;;;;;;;17.30;9.57;;;1.00;1.00;;;;;;5066627;28;20182;-76
2022/12/14 09:34:59;;;;;;;14.33;8.60;;;0.90;1.00;;;;;;5073373;28;20191;-75
2022/12/14 09:37:25;;;;;;;13.40;9.10;;;1.00;1.00;;;;;;5075895;28;20178;-76
2022/12/14 09:40:01;;;;;;;15.53;9.60;;;1.00;1.00;;;;;;5075494;28;20485;-76
2022/12/14 09:43:04;;;;;;;18.98;9.85;;;1.10;1.00;;;;;;5073843;28;20842;-75
2022/12/14 09:45:49;;;;;;;17.33;9.38;;;1.10;1.00;;;;;;5051269;28;20186;-76
2022/12/14 09:48:23;;;;;;;15.73;9.48;;;1.20;1.00;;;;;;5058373;28;20187;-76
2022/12/14 09:50:55;;;;;;;14.50;9.35;;;1.20;1.00;;;;;;5056818;28;20705;-76
2022/12/14 09:53:33;;;;;;;15.80;8.48;;;1.20;1.00;;;;;;5058311;28;20252;-76
2022/12/14 09:55:59;;;;;;;15.98;10.15;;;1.20;1.00;;;;;;5067499;28;20273;-75
2022/12/14 09:58:33;;;;;;;15.73;9.43;;;1.20;1.00;;;;;;5060521;28;20259;-76
2022/12/14 10:01:23;;;;;;;14.52;9.35;;;1.20;1.00;;;;;;5073278;28;20179;-75
2022/12/14 10:04:19;;;;;;;23.05;9.82;;;1.20;1.00;;;;;;5072393;28;20186;-75
2022/12/14 10:07:11;;;;;;;13.55;8.38;;;1.20;1.00;;;;;;5055934;28;20199;-76
2022/12/14 10:09:39;;;;;;;12.77;8.38;;;1.20;1.00;;;;;;5072821;28;20187;-75
2022/12/14 10:12:36;;;;;;;15.05;9.40;;;1.20;1.00;;;;;;5073176;28;20183;-75
2022/12/14 10:15:07;;;;;;;14.43;8.40;;;1.30;1.00;;;;;;5067425;28;20238;-77
2022/12/14 10:17:55;;;;;;;12.82;8.13;;;1.30;1.00;;;;;;5049425;28;20183;-77
2022/12/14 10:20:41;;;;;;;16.23;8.50;;;1.30;1.00;;;;;;5071770;28;20178;-77
2022/12/14 10:23:13;;;;;;;15.50;9.30;;;1.40;1.00;;;;;;5073635;28;20183;-79
2022/12/14 10:25:40;;;;;;;15.18;8.80;;;1.50;1.00;;;;;;5070976;28;20730;-78
2022/12/14 10:28:23;;;;;;;15.63;8.38;;;1.50;1.00;;;;;;5074645;28;20201;-80
2022/12/14 10:30:53;;;;;;;13.57;8.55;;;1.40;1.00;;;;;;5065058;28;20977;-78
2022/12/14 10:33:25;;;;;;;15.63;8.55;;;1.40;1.00;;;;;;5075501;28;20210;-78
2022/12/14 10:35:54;;;;;;;14.10;8.80;;;1.50;1.00;;;;;;5072354;28;20229;-78
2022/12/14 10:38:33;;;;;;;12.45;8.90;;;1.50;1.00;;;;;;5055408;28;20688;-77
2022/12/14 10:41:10;;;;;;;15.82;8.10;;;1.40;1.00;;;;;;5065842;28;20179;-78
2022/12/14 10:43:49;;;;;;;11.80;7.68;;;1.50;1.00;;;;;;5062910;28;20179;-79
2022/12/14 10:46:47;;;;;;;13.18;7.55;;;1.60;1.00;;;;;;5063276;28;20209;-78
2022/12/14 10:49:18;;;;;;;12.20;7.80;;;1.50;1.00;;;;;;5074280;28;20172;-77
2022/12/14 10:51:49;;;;;;;13.15;8.35;;;1.50;1.00;;;;;;5074764;28;20206;-78
2022/12/14 10:54:37;;;;;;;12.05;8.40;;;1.50;1.00;;;;;;5072874;28;20206;-79
2022/12/14 10:57:08;;;;;;;12.60;8.15;;;1.50;1.00;;;;;;5073382;28;20179;-78
2022/12/14 11:00:12;;;;;;;13.90;8.07;;;1.50;1.00;;;;;;5068154;28;20682;-76
2022/12/14 11:02:47;;;;;;;11.30;7.57;;;1.50;1.00;;;;;;5064467;28;20179;-77
2022/12/14 11:05:40;;;;;;;13.50;7.93;;;1.50;1.00;;;;;;5070735;28;20178;-77
2022/12/14 11:08:45;;;;;;;12.07;8.20;;;1.40;1.00;;;;;;5057570;28;20179;-77
2022/12/14 11:11:21;;;;;;;11.50;7.53;;;1.30;1.00;;;;;;5060055;28;20206;-77
2022/12/14 11:13:52;;;;;;;14.07;7.95;;;1.20;1.00;;;;;;5073516;28;20191;-85
2022/12/14 11:16:24;;;;;;;14.30;7.97;;;1.20;1.00;;;;;;5073867;28;20175;-86
2022/12/14 11:18:59;;;;;;;12.05;7.85;;;1.20;1.00;;;;;;5072008;28;20591;-86
2022/12/14 11:21:38;;;;;;;14.10;8.63;;;1.20;1.00;;;;;;5065408;28;20217;-86
2022/12/14 11:24:41;;;;;;;11.27;7.65;;;1.20;1.00;;;;;;5062166;28;20661;-86
2022/12/14 11:27:20;;;;;;;11.63;7.65;;;1.20;1.00;;;;;;5069755;28;20281;-85
2022/12/14 11:29:48;;;;;;;10.27;8.18;;;1.20;1.00;;;;;;5037176;28;20237;-85
2022/12/14 11:42:21;;;;;;;21.63;7.97;;;1.30;1.00;;;;;;5072677;28;20552;-86
2022/12/14 11:44:49;;;;;;;14.77;8.85;;;1.30;1.00;;;;;;5067236;28;20722;-76
2022/12/14 11:47:20;;;;;;;13.07;8.00;;;1.30;1.00;;;;;;5070982;28;20183;-76
2022/12/14 11:49:57;;;;;;;12.75;8.80;;;1.30;1.00;;;;;;5071663;28;20194;-76
2022/12/14 11:52:38;;;;;;;16.90;9.18;;;1.30;1.00;;;;;;5071192;28;20178;-78
2022/12/14 11:55:21;;;;;;;14.05;8.45;;;1.30;1.00;;;;;;5052595;28;20214;-76
2022/12/14 11:58:02;;;;;;;13.90;8.35;;;1.40;1.00;;;;;;5066628;28;20585;-76
2022/12/14 12:00:40;;;;;;;18.67;8.57;;;1.40;1.00;;;;;;5056231;28;20257;-85
2022/12/14 12:03:32;;;;;;;11.75;7.90;;;1.40;1.00;;;;;;5066782;28;20182;-86
2022/12/14 12:06:21;;;;;;;13.80;9.00;;;1.40;1.00;;;;;;5067113;28;20199;-85
2022/12/14 12:09:09;;;;;;;12.60;8.73;;;1.50;1.00;;;;;;5073676;28;20179;-86
2022/12/14 12:11:44;;;;;;;11.40;8.18;;;1.60;1.00;;;;;;5073810;28;20630;-85
2022/12/14 12:14:34;;;;;;;15.27;9.20;;;1.60;1.00;;;;;;5072992;28;20235;-82
2022/12/14 12:17:36;;;;;;;14.10;9.20;;;1.70;1.00;;;;;;5067542;28;20233;-77
2022/12/14 12:20:03;;;;;;;17.17;8.90;;;1.80;1.00;;;;;;5059003;28;20185;-74
2022/12/14 12:22:30;;;;;;;11.07;7.35;;;1.70;1.00;;;;;;5072641;28;20181;-74
2022/12/14 12:25:00;;;;;;;17.00;9.50;;;2.10;1.00;;;;;;5070171;28;20189;-74
2022/12/14 12:27:28;;;;;;;13.52;7.85;;;2.70;1.00;;;;;;5069029;28;20213;-73
2022/12/14 12:30:27;;;;;;;11.27;7.85;;;3.10;1.00;;;;;;5073163;28;20198;-81
2022/12/14 12:33:23;;;;;;;11.98;7.90;;;3.60;1.00;;;;;;5052098;28;20186;-82
2022/12/14 12:36:01;;;;;;;13.43;8.18;;;4.00;1.00;;;;;;5072716;28;20262;-81
2022/12/14 12:39:01;;;;;;;13.73;8.23;;;4.10;1.00;;;;;;5060813;28;20162;-81
2022/12/14 12:41:43;;;;;;;12.20;6.80;;;4.40;1.00;;;;;;5055887;28;20549;-82
2022/12/14 12:44:32;;;;;;;16.58;8.80;;;4.30;1.00;;;;;;5071351;28;20182;-85
2022/12/14 12:47:39;;;;;;;17.98;9.52;;;4.30;1.00;;;;;;5073315;28;20167;-85
2022/12/14 12:50:49;;;;;;;14.23;8.13;;;3.80;1.00;;;;;;5059843;28;20183;-85
2022/12/14 12:57:04;;;;;;;15.02;9.25;;;3.10;1.00;;;;;;5051786;28;20190;-85
2022/12/14 12:59:53;;;;;;;22.42;9.00;;;2.90;1.00;;;;;;5063018;28;20193;-85
2022/12/14 13:02:46;;;;;;;15.07;8.73;;;2.70;1.00;;;;;;5067216;28;20179;-75
2022/12/14 13:05:18;;;;;;;14.02;9.15;;;2.50;1.00;;;;;;5069920;28;20199;-75
2022/12/14 13:07:50;;;;;;;16.77;9.10;;;2.30;1.00;;;;;;5072469;28;20528;-75
2022/12/14 13:10:31;;;;;;;13.52;9.10;;;2.20;1.00;;;;;;5070836;28;20182;-75
2022/12/14 13:13:13;;;;;;;15.32;8.65;;;2.10;1.00;;;;;;5060480;28;20179;-74
2022/12/14 13:15:41;;;;;;;14.90;8.45;;;2.10;1.00;;;;;;5072786;28;20170;-75
2022/12/14 13:18:39;;;;;;;15.18;8.52;;;2.10;1.00;;;;;;5072322;28;20167;-75
2022/12/14 13:21:44;;;;;;;14.80;8.30;;;2.20;1.00;;;;;;5050549;28;20198;-75
2022/12/14 13:24:17;;;;;;;15.57;9.00;;;2.30;1.00;;;;;;4991271;28;20193;-74
2022/12/14 13:27:11;;;;;;;12.73;7.97;;;2.40;1.00;;;;;;4991595;28;20216;-76
2022/12/14 13:30:20;;;;;;;15.73;8.90;;;2.50;1.00;;;;;;4991918;28;20193;-76
2022/12/14 13:33:09;;;;;;;14.55;8.52;;;2.60;1.00;;;;;;4991628;28;20185;-76
2022/12/14 13:35:59;;;;;;;12.68;8.15;;;2.70;1.00;;;;;;4991010;28;20606;-75
2022/12/14 13:38:32;;;;;;;13.20;8.15;;;2.80;1.00;;;;;;4991500;28;20201;-75
2022/12/14 13:41:18;;;;;;;13.90;8.07;;;2.80;1.00;;;;;;4991395;28;20193;-80
2022/12/14 13:44:21;;;;;;;14.55;8.30;;;2.90;1.00;;;;;;4990049;28;20220;-78
2022/12/14 13:46:56;;;;;;;14.90;8.85;;;2.90;1.00;;;;;;4972600;28;20281;-76
2022/12/14 13:49:38;;;;;;;14.35;8.63;;;3.00;1.00;;;;;;4988411;28;20272;-74
2022/12/14 13:52:29;;;;;;;12.75;8.38;;;2.90;1.00;;;;;;4991073;28;20208;-77
2022/12/14 13:54:57;;;;;;;15.25;7.93;;;2.80;1.00;;;;;;4990658;28;20213;-78
2022/12/14 13:57:50;;;;;;;17.10;9.10;;;2.70;1.00;;;;;;4999561;28;20222;-77
2022/12/14 14:00:44;;;;;;;14.00;8.60;;;2.60;1.00;;;;;;5067809;28;20174;-73
2022/12/14 14:03:31;;;;;;;20.73;8.50;;;2.40;1.00;;;;;;5064150;28;20218;-72
2022/12/14 14:06:10;;;;;;;11.18;8.15;;;2.30;1.00;;;;;;5068091;28;20182;-72
2022/12/14 14:08:40;;;;;;;16.67;8.93;;;2.20;1.00;;;;;;5074191;28;20178;-71
2022/12/14 14:11:26;;;;;;;14.45;8.82;;;2.20;1.00;;;;;;5071327;28;20175;-75
2022/12/14 14:14:30;;;;;;;11.75;8.20;;;2.10;1.00;;;;;;5074103;28;20658;-73
2022/12/14 14:17:02;;;;;;;13.25;8.63;;;2.00;1.00;;;;;;5071385;28;20686;-72
2022/12/14 14:19:36;;;;;;;12.93;8.00;;;2.00;1.00;;;;;;5049364;28;20183;-74
2022/12/14 14:22:22;;;;;;;17.38;9.43;;;1.90;1.00;;;;;;5068802;28;20227;-74
2022/12/14 14:25:05;;;;;;;15.55;9.63;;;2.00;1.00;;;;;;5072223;28;20186;-73
2022/12/14 14:27:40;;;;;;;13.75;9.35;;;1.90;1.00;;;;;;5060997;28;20196;-74
2022/12/14 14:30:42;;;;;;;16.50;8.73;;;1.90;1.00;;;;;;5047050;28;20183;-74
2022/12/14 14:33:58;;;;;;;16.77;9.98;;;1.90;1.00;;;;;;5022189;28;20246;-80
2022/12/14 14:36:32;;;;;;;14.48;9.23;;;1.80;1.00;;;;;;4934723;29;20350;-73
2022/12/14 14:39:05;;;;;;;16.05;9.18;;;1.80;1.00;;;;;;4936830;29;20220;-72
2022/12/14 14:41:37;;;;;;;14.50;9.25;;;1.70;1.00;;;;;;4937536;29;20342;-72
2022/12/14 14:44:34;;;;;;;14.57;9.38;;;1.70;1.00;;;;;;4937774;29;20180;-72
2022/12/14 14:47:01;;;;;;;18.48;10.00;;;1.60;1.00;;;;;;4937127;29;20283;-72
2022/12/14 14:49:29;;;;;;;17.95;9.80;;;1.50;1.00;;;;;;4949929;29;20962;-74
2022/12/14 14:52:35;;;;;;;15.95;10.75;;;1.50;1.00;;;;;;4935508;29;20207;-74
2022/12/14 14:55:31;;;;;;;14.82;9.15;;;1.30;1.00;;;;;;4906185;29;20230;-75
2022/12/14 14:58:04;;;;;;;16.92;9.68;;;1.10;1.00;;;;;;4915888;29;20219;-76
2022/12/14 15:00:51;;;;;;;16.67;9.35;;;1.00;1.00;;;;;;4914982;29;20718;-73
2022/12/14 15:03:22;;;;;;;18.90;9.90;;;0.80;1.00;;;;;;4911079;29;20317;-71
2022/12/14 15:05:48;;;;;;;19.02;9.75;;;0.70;1.00;;;;;;4913480;29;20661;-71